createdAt,value
2022-08-29T00:03:00.404Z,19.93
2022-08-29T00:06:07.849Z,19.92
2022-08-29T00:09:15.729Z,20.01
2022-08-29T00:12:22.270Z,19.93
2022-08-29T00:15:44.520Z,20.01
2022-08-29T00:18:51.573Z,19.81
2022-08-29T00:21:56.949Z,19.89
2022-08-29T00:25:05.853Z,19.85
2022-08-29T00:28:11.573Z,19.82
2022-08-29T00:31:17.220Z,19.86
2022-08-29T00:34:23.145Z,19.89
2022-08-29T00:37:28.944Z,19.89
2022-08-29T00:40:40.510Z,19.82
2022-08-29T00:43:46.343Z,19.82
2022-08-29T00:46:55.651Z,19.81
2022-08-29T00:50:01.425Z,19.69
2022-08-29T00:53:09.381Z,19.68
2022-08-29T00:56:19.972Z,19.67
2022-08-29T00:59:29.731Z,19.73
2022-08-29T01:02:40.256Z,19.63
2022-08-29T01:05:46.367Z,19.71
2022-08-29T01:08:57.263Z,19.50
2022-08-29T01:12:19.551Z,19.53
2022-08-29T01:15:25.520Z,19.68
2022-08-29T01:18:33.496Z,19.44
2022-08-29T01:21:47.520Z,19.45
2022-08-29T01:24:56.608Z,19.55
2022-08-29T01:28:08.972Z,19.61
2022-08-29T01:31:15.898Z,19.45
2022-08-29T01:34:42.236Z,19.46
2022-08-29T01:37:48.233Z,19.28
2022-08-29T01:40:57.327Z,19.48
2022-08-29T01:44:02.788Z,19.46
2022-08-29T01:47:11.528Z,19.51
2022-08-29T01:50:18.905Z,19.43
2022-08-29T01:53:24.536Z,19.47
2022-08-29T01:56:34.806Z,19.42
2022-08-29T01:59:40.656Z,19.41
2022-08-29T02:02:46.044Z,19.52
2022-08-29T02:05:51.697Z,19.55
2022-08-29T02:08:57.748Z,19.60
2022-08-29T02:12:07.386Z,19.51
2022-08-29T02:15:13.926Z,19.42
2022-08-29T02:18:19.919Z,19.49
2022-08-29T02:21:27.511Z,19.38
2022-08-29T02:24:33.637Z,19.28
2022-08-29T02:27:42.660Z,19.51
2022-08-29T02:30:55.817Z,19.47
2022-08-29T02:34:02.144Z,19.45
2022-08-29T02:37:09.254Z,19.48
2022-08-29T02:40:14.832Z,19.60
2022-08-29T02:43:23.844Z,19.50
2022-08-29T02:46:29.615Z,19.61
2022-08-29T02:49:35.286Z,19.44
2022-08-29T02:52:41.953Z,19.45
2022-08-29T02:55:48.937Z,19.27
2022-08-29T02:58:56.897Z,19.42
2022-08-29T03:02:02.563Z,19.34
2022-08-29T03:05:09.514Z,19.33
2022-08-29T03:08:16.759Z,19.32
2022-08-29T03:11:22.825Z,19.40
2022-08-29T03:14:31.195Z,19.23
2022-08-29T03:17:37.361Z,19.33
2022-08-29T03:20:43.430Z,19.29
2022-08-29T03:23:48.757Z,19.34
2022-08-29T03:26:56.698Z,19.26
2022-08-29T03:30:04.999Z,19.44
2022-08-29T03:33:11.971Z,19.24
2022-08-29T03:36:17.596Z,19.33
2022-08-29T03:39:24.031Z,19.41
2022-08-29T03:42:30.127Z,19.46
2022-08-29T03:45:38.573Z,19.44
2022-08-29T03:48:43.860Z,19.32
2022-08-29T03:51:50.197Z,19.37
2022-08-29T03:54:56.060Z,19.42
2022-08-29T03:58:02.723Z,19.31
2022-08-29T04:01:10.797Z,19.23
2022-08-29T04:04:36.572Z,19.27
2022-08-29T04:07:44.233Z,19.21
2022-08-29T04:10:50.185Z,19.25
2022-08-29T04:13:56.865Z,19.32
2022-08-29T04:17:05.137Z,19.25
2022-08-29T04:20:12.433Z,19.33
2022-08-29T04:23:18.647Z,19.27
2022-08-29T04:26:39.196Z,19.27
2022-08-29T04:29:48.445Z,19.41
2022-08-29T04:32:56.556Z,19.29
2022-08-29T04:36:02.177Z,19.43
2022-08-29T04:39:08.725Z,19.38
2022-08-29T04:42:18.226Z,19.47
2022-08-29T04:45:26.349Z,19.40
2022-08-29T04:48:34.563Z,19.39
2022-08-29T04:51:40.764Z,19.51
2022-08-29T04:54:46.389Z,19.43
2022-08-29T04:57:52.221Z,19.59
2022-08-29T05:00:57.997Z,19.49
2022-08-29T05:04:07.880Z,19.48
2022-08-29T05:07:16.872Z,19.51
2022-08-29T05:10:23.716Z,19.45
2022-08-29T05:13:29.704Z,19.48
2022-08-29T05:16:37.336Z,19.59
2022-08-29T05:19:45.612Z,19.56
2022-08-29T05:22:50.952Z,19.65
2022-08-29T05:25:59.568Z,19.75
2022-08-29T05:29:05.372Z,19.72
2022-08-29T05:32:16.101Z,19.75
2022-08-29T05:35:24.293Z,19.79
2022-08-29T05:38:29.924Z,19.83
2022-08-29T05:41:36.364Z,19.78
2022-08-29T05:44:44.348Z,19.76
2022-08-29T05:47:51.224Z,19.75
2022-08-29T05:50:59.952Z,19.82
2022-08-29T05:54:05.557Z,19.80
2022-08-29T05:57:18.207Z,19.92
2022-08-29T06:00:24.733Z,19.91
2022-08-29T06:03:30.573Z,19.88
2022-08-29T06:06:38.597Z,19.95
2022-08-29T06:09:45.945Z,20.07
2022-08-29T06:12:51.292Z,19.99
2022-08-29T06:15:57.535Z,20.03
2022-08-29T06:19:03.381Z,20.16
2022-08-29T06:22:13.329Z,20.22
2022-08-29T06:28:46.545Z,20.20
2022-08-29T06:31:51.930Z,20.20
2022-08-29T06:34:57.581Z,-145.26
2022-08-29T06:38:05.508Z,-145.26
2022-08-29T06:41:14.394Z,-145.26
2022-08-29T06:44:21.498Z,-145.26
2022-08-29T06:47:27.158Z,-145.26
2022-08-29T06:50:32.516Z,20.71
2022-08-29T06:53:42.270Z,20.76
2022-08-29T06:56:48.581Z,20.26
2022-08-29T06:59:54.269Z,20.32
2022-08-29T07:02:59.762Z,20.40
2022-08-29T07:06:05.712Z,20.58
2022-08-29T07:09:14.193Z,20.59
2022-08-29T07:12:19.822Z,20.57
2022-08-29T07:15:26.437Z,20.78
2022-08-29T07:18:32.153Z,20.72
2022-08-29T07:21:37.717Z,20.72
2022-08-29T07:24:45.979Z,21.52
2022-08-29T07:27:53.505Z,20.67
2022-08-29T07:30:59.336Z,20.74
2022-08-29T07:34:05.296Z,20.64
2022-08-29T07:37:11.073Z,20.79
2022-08-29T07:40:20.072Z,20.90
2022-08-29T07:43:27.970Z,20.96
2022-08-29T07:46:33.562Z,20.89
2022-08-29T07:49:42.004Z,20.94
2022-08-29T07:52:47.929Z,21.01
2022-08-29T07:55:56.201Z,20.94
2022-08-29T07:59:02.332Z,20.88
2022-08-29T08:02:08.098Z,21.00
2022-08-29T08:05:13.672Z,20.89
2022-08-29T08:08:20.182Z,20.97
2022-08-29T08:11:30.526Z,21.09
2022-08-29T08:14:37.011Z,21.20
2022-08-29T08:17:44.181Z,21.23
2022-08-29T08:20:51.144Z,21.23
2022-08-29T08:23:57.065Z,21.31
2022-08-29T08:27:05.541Z,21.36
2022-08-29T08:30:12.509Z,21.44
2022-08-29T08:33:18.173Z,21.44
2022-08-29T08:36:26.119Z,-145.26
2022-08-29T08:39:32.760Z,-145.26
2022-08-29T08:42:45.172Z,-145.26
2022-08-29T08:45:50.877Z,-145.26
2022-08-29T08:49:00.665Z,-145.26
2022-08-29T08:52:15.817Z,-145.26
2022-08-29T08:55:28.755Z,-145.26
2022-08-29T08:58:45.201Z,-145.26
2022-08-29T09:02:06.597Z,-145.26
2022-08-29T09:05:31.452Z,-145.26
2022-08-29T09:08:48.240Z,-145.26
2022-08-29T09:12:03.628Z,-145.26
2022-08-29T09:15:16.106Z,-145.26
2022-08-29T09:18:31.641Z,-145.26
2022-08-29T09:21:49.635Z,-145.26
2022-08-29T09:25:00.955Z,-145.26
2022-08-29T09:28:09.029Z,-145.26
2022-08-29T09:31:24.457Z,-145.26
2022-08-29T09:38:07.638Z,-145.26
2022-08-29T09:41:15.373Z,-145.26
2022-08-29T09:44:25.401Z,-145.26
2022-08-29T09:47:35.806Z,-145.26
2022-08-29T09:50:41.489Z,-145.26
2022-08-29T09:53:47.285Z,-145.26
2022-08-29T09:56:58.571Z,-145.26
2022-08-29T10:00:15.697Z,-145.26
2022-08-29T10:03:26.332Z,-145.26
2022-08-29T10:06:34.280Z,-145.26
2022-08-29T10:09:40.012Z,-145.26
2022-08-29T10:12:54.198Z,-145.26
2022-08-29T10:16:07.299Z,-145.26
2022-08-29T10:19:21.216Z,-145.26
2022-08-29T10:22:38.929Z,-145.26
2022-08-29T10:25:44.881Z,-145.26
2022-08-29T10:28:55.409Z,-145.26
2022-08-29T10:32:10.138Z,-145.26
2022-08-29T10:35:27.809Z,-145.26
2022-08-29T10:38:48.403Z,-145.26
2022-08-29T10:42:01.016Z,-145.26
2022-08-29T10:45:18.491Z,-145.26
2022-08-29T10:48:32.097Z,-145.26
2022-08-29T10:51:49.916Z,-145.26
2022-08-29T10:55:03.421Z,-145.26
2022-08-29T10:58:16.996Z,-145.26
2022-08-29T11:01:26.211Z,-145.26
2022-08-29T11:04:37.511Z,-145.26
2022-08-29T11:07:51.177Z,-145.26
2022-08-29T11:10:56.550Z,-145.26
2022-08-29T11:14:06.140Z,-145.26
2022-08-29T11:17:16.004Z,-145.26
2022-08-29T11:20:26.580Z,-145.26
2022-08-29T11:23:41.429Z,-145.26
2022-08-29T11:26:58.157Z,-145.26
2022-08-29T11:30:08.030Z,-145.26
2022-08-29T11:33:27.989Z,-145.26
2022-08-29T11:36:50.972Z,-145.26
2022-08-29T11:40:10.377Z,-145.26
2022-08-29T11:43:21.461Z,-145.26
2022-08-29T11:46:39.516Z,-145.26
2022-08-29T11:49:48.561Z,-145.26
2022-08-29T11:52:58.453Z,-145.26
2022-08-29T11:56:33.560Z,-145.26
2022-08-29T12:00:01.337Z,-145.26
2022-08-29T12:03:15.139Z,-145.26
2022-08-29T12:06:57.538Z,-145.26
2022-08-29T12:10:10.721Z,-145.26
2022-08-29T12:15:48.171Z,23.18
2022-08-29T12:18:58.145Z,23.17
2022-08-29T12:22:03.616Z,23.14
2022-08-29T12:25:32.715Z,23.20
2022-08-29T12:28:52.060Z,23.20
2022-08-29T12:32:32.157Z,23.33
2022-08-29T12:36:05.747Z,23.40
2022-08-29T12:39:35.754Z,23.44
2022-08-29T12:42:51.567Z,23.57
2022-08-29T12:45:58.744Z,23.82
2022-08-29T12:49:11.529Z,24.02
2022-08-29T12:52:27.942Z,24.22
2022-08-29T12:55:40.004Z,24.21
2022-08-29T12:58:48.182Z,24.22
2022-08-29T13:01:56.401Z,24.12
2022-08-29T13:05:02.686Z,24.10
2022-08-29T13:08:13.645Z,24.07
2022-08-29T13:11:23.530Z,24.19
2022-08-29T13:14:28.865Z,24.12
2022-08-29T13:17:36.411Z,24.12
2022-08-29T13:20:48.722Z,24.10
2022-08-29T13:24:05.932Z,24.09
2022-08-29T13:27:11.511Z,24.06
2022-08-29T13:30:25.453Z,24.02
2022-08-29T13:33:35.472Z,24.06
2022-08-29T13:36:46.947Z,24.16
2022-08-29T13:39:55.096Z,24.17
2022-08-29T13:43:02.337Z,24.22
2022-08-29T13:46:18.348Z,24.14
2022-08-29T13:49:25.690Z,24.16
2022-08-29T13:52:32.333Z,24.07
2022-08-29T13:55:43.280Z,24.12
2022-08-29T13:58:48.577Z,24.09
2022-08-29T14:02:11.217Z,24.10
2022-08-29T14:05:17.475Z,24.17
2022-08-29T14:08:23.144Z,24.16
2022-08-29T14:11:31.273Z,24.17
2022-08-29T14:14:37.220Z,24.19
2022-08-29T14:17:43.791Z,24.17
2022-08-29T14:20:49.449Z,24.13
2022-08-29T14:23:54.752Z,24.14
2022-08-29T14:27:05.009Z,24.13
2022-08-29T14:30:13.763Z,24.12
2022-08-29T14:33:20.087Z,24.09
2022-08-29T14:38:02.986Z,24.11
2022-08-29T14:41:08.692Z,24.04
